sensor_id;sensor_type;location;lat;lon;timestamp;P1;durP1;ratioP1;P2;durP2;ratioP2
5945;SDS011;2998;48.206;16.394;2022-08-19T00:01:37;7.93;;;5.90;;
5945;SDS011;2998;48.206;16.394;2022-08-19T00:04:09;10.47;;;5.33;;
5945;SDS011;2998;48.206;16.394;2022-08-19T00:06:39;7.40;;;5.50;;
5945;SDS011;2998;48.206;16.394;2022-08-19T00:09:08;12.73;;;6.33;;
5945;SDS011;2998;48.206;16.394;2022-08-19T00:11:39;12.70;;;5.50;;
5945;SDS011;2998;48.206;16.394;2022-08-19T00:14:08;10.30;;;4.50;;
5945;SDS011;2998;48.206;16.394;2022-08-19T00:16:38;5.73;;;4.57;;
5945;SDS011;2998;48.206;16.394;2022-08-19T00:19:08;12.00;;;5.20;;
5945;SDS011;2998;48.206;16.394;2022-08-19T00:21:36;6.43;;;4.60;;
5945;SDS011;2998;48.206;16.394;2022-08-19T00:24:06;14.10;;;5.03;;
5945;SDS011;2998;48.206;16.394;2022-08-19T00:26:35;5.70;;;4.77;;
5945;SDS011;2998;48.206;16.394;2022-08-19T00:29:05;10.10;;;5.80;;
5945;SDS011;2998;48.206;16.394;2022-08-19T00:31:34;5.53;;;5.13;;
5945;SDS011;2998;48.206;16.394;2022-08-19T00:34:02;9.10;;;5.50;;
5945;SDS011;2998;48.206;16.394;2022-08-19T00:36:30;5.50;;;5.00;;
5945;SDS011;2998;48.206;16.394;2022-08-19T00:38:59;7.37;;;4.33;;
5945;SDS011;2998;48.206;16.394;2022-08-19T00:41:28;6.23;;;5.37;;
5945;SDS011;2998;48.206;16.394;2022-08-19T00:43:58;8.00;;;5.63;;
5945;SDS011;2998;48.206;16.394;2022-08-19T00:46:30;10.07;;;7.03;;
5945;SDS011;2998;48.206;16.394;2022-08-19T00:48:59;14.93;;;6.20;;
5945;SDS011;2998;48.206;16.394;2022-08-19T00:51:29;10.00;;;5.50;;
5945;SDS011;2998;48.206;16.394;2022-08-19T00:53:58;11.80;;;4.80;;
5945;SDS011;2998;48.206;16.394;2022-08-19T00:56:28;12.27;;;5.80;;
5945;SDS011;2998;48.206;16.394;2022-08-19T00:58:58;5.93;;;5.33;;
5945;SDS011;2998;48.206;16.394;2022-08-19T01:01:27;8.43;;;5.40;;
5945;SDS011;2998;48.206;16.394;2022-08-19T01:03:56;15.20;;;5.10;;
5945;SDS011;2998;48.206;16.394;2022-08-19T01:06:24;9.83;;;5.73;;
5945;SDS011;2998;48.206;16.394;2022-08-19T01:08:53;6.37;;;5.77;;
5945;SDS011;2998;48.206;16.394;2022-08-19T01:11:21;9.13;;;6.30;;
5945;SDS011;2998;48.206;16.394;2022-08-19T01:13:49;17.53;;;6.10;;
5945;SDS011;2998;48.206;16.394;2022-08-19T01:16:20;16.47;;;7.10;;
5945;SDS011;2998;48.206;16.394;2022-08-19T01:18:50;11.10;;;5.40;;
5945;SDS011;2998;48.206;16.394;2022-08-19T01:21:18;10.47;;;5.03;;
5945;SDS011;2998;48.206;16.394;2022-08-19T01:23:51;7.10;;;5.80;;
5945;SDS011;2998;48.206;16.394;2022-08-19T01:26:20;7.10;;;4.70;;
5945;SDS011;2998;48.206;16.394;2022-08-19T01:28:50;5.70;;;4.50;;
5945;SDS011;2998;48.206;16.394;2022-08-19T01:31:22;6.40;;;5.20;;
5945;SDS011;2998;48.206;16.394;2022-08-19T01:33:54;5.77;;;4.77;;
5945;SDS011;2998;48.206;16.394;2022-08-19T01:36:24;9.87;;;6.00;;
5945;SDS011;2998;48.206;16.394;2022-08-19T01:38:55;12.77;;;6.93;;
5945;SDS011;2998;48.206;16.394;2022-08-19T01:41:24;15.27;;;6.30;;
5945;SDS011;2998;48.206;16.394;2022-08-19T01:43:54;8.10;;;6.30;;
5945;SDS011;2998;48.206;16.394;2022-08-19T01:46:42;14.43;;;5.53;;
5945;SDS011;2998;48.206;16.394;2022-08-19T01:49:11;6.63;;;5.03;;
5945;SDS011;2998;48.206;16.394;2022-08-19T01:51:39;8.93;;;5.90;;
5945;SDS011;2998;48.206;16.394;2022-08-19T01:54:09;5.83;;;5.00;;
5945;SDS011;2998;48.206;16.394;2022-08-19T01:56:38;13.13;;;6.83;;
5945;SDS011;2998;48.206;16.394;2022-08-19T01:59:08;6.30;;;5.30;;
5945;SDS011;2998;48.206;16.394;2022-08-19T02:01:39;11.17;;;5.63;;
5945;SDS011;2998;48.206;16.394;2022-08-19T02:04:07;8.10;;;5.90;;
5945;SDS011;2998;48.206;16.394;2022-08-19T02:06:35;10.17;;;5.60;;
5945;SDS011;2998;48.206;16.394;2022-08-19T02:09:04;6.67;;;5.10;;
5945;SDS011;2998;48.206;16.394;2022-08-19T02:11:34;13.17;;;4.93;;
5945;SDS011;2998;48.206;16.394;2022-08-19T02:14:04;13.30;;;5.47;;
5945;SDS011;2998;48.206;16.394;2022-08-19T02:16:33;10.03;;;6.30;;
5945;SDS011;2998;48.206;16.394;2022-08-19T02:19:01;8.60;;;5.77;;
5945;SDS011;2998;48.206;16.394;2022-08-19T02:21:30;13.60;;;6.47;;
5945;SDS011;2998;48.206;16.394;2022-08-19T02:23:58;10.20;;;6.27;;
5945;SDS011;2998;48.206;16.394;2022-08-19T02:26:26;6.97;;;5.93;;
5945;SDS011;2998;48.206;16.394;2022-08-19T02:28:56;9.90;;;5.87;;
5945;SDS011;2998;48.206;16.394;2022-08-19T02:31:25;8.50;;;6.33;;
5945;SDS011;2998;48.206;16.394;2022-08-19T02:33:54;8.53;;;6.23;;
5945;SDS011;2998;48.206;16.394;2022-08-19T02:36:23;10.73;;;6.40;;
5945;SDS011;2998;48.206;16.394;2022-08-19T02:38:52;10.90;;;7.03;;
5945;SDS011;2998;48.206;16.394;2022-08-19T02:41:22;13.27;;;6.00;;
5945;SDS011;2998;48.206;16.394;2022-08-19T02:43:52;10.47;;;6.60;;
5945;SDS011;2998;48.206;16.394;2022-08-19T02:46:42;9.33;;;6.20;;
5945;SDS011;2998;48.206;16.394;2022-08-19T02:49:11;7.40;;;6.30;;
5945;SDS011;2998;48.206;16.394;2022-08-19T02:51:43;11.53;;;6.10;;
5945;SDS011;2998;48.206;16.394;2022-08-19T02:54:12;11.93;;;7.03;;
5945;SDS011;2998;48.206;16.394;2022-08-19T02:56:41;8.17;;;6.23;;
5945;SDS011;2998;48.206;16.394;2022-08-19T02:59:10;12.80;;;7.00;;
5945;SDS011;2998;48.206;16.394;2022-08-19T03:01:39;9.20;;;8.20;;
5945;SDS011;2998;48.206;16.394;2022-08-19T03:04:10;13.50;;;6.90;;
5945;SDS011;2998;48.206;16.394;2022-08-19T03:06:41;7.70;;;6.60;;
5945;SDS011;2998;48.206;16.394;2022-08-19T03:09:10;9.53;;;6.90;;
5945;SDS011;2998;48.206;16.394;2022-08-19T03:11:39;13.00;;;6.70;;
5945;SDS011;2998;48.206;16.394;2022-08-19T03:14:08;15.00;;;7.13;;
5945;SDS011;2998;48.206;16.394;2022-08-19T03:16:40;7.33;;;6.63;;
5945;SDS011;2998;48.206;16.394;2022-08-19T03:19:10;15.63;;;7.63;;
5945;SDS011;2998;48.206;16.394;2022-08-19T03:21:39;12.13;;;6.90;;
5945;SDS011;2998;48.206;16.394;2022-08-19T03:24:08;11.00;;;7.37;;
5945;SDS011;2998;48.206;16.394;2022-08-19T03:26:38;10.60;;;7.57;;
5945;SDS011;2998;48.206;16.394;2022-08-19T03:29:06;9.93;;;7.33;;
5945;SDS011;2998;48.206;16.394;2022-08-19T03:31:39;8.90;;;6.73;;
5945;SDS011;2998;48.206;16.394;2022-08-19T03:34:20;12.97;;;8.23;;
5945;SDS011;2998;48.206;16.394;2022-08-19T03:36:52;8.10;;;6.60;;
5945;SDS011;2998;48.206;16.394;2022-08-19T03:39:21;12.03;;;6.53;;
5945;SDS011;2998;48.206;16.394;2022-08-19T03:41:50;12.50;;;7.60;;
5945;SDS011;2998;48.206;16.394;2022-08-19T03:44:39;16.87;;;9.33;;
5945;SDS011;2998;48.206;16.394;2022-08-19T03:47:08;9.80;;;8.63;;
5945;SDS011;2998;48.206;16.394;2022-08-19T03:49:44;16.63;;;9.73;;
5945;SDS011;2998;48.206;16.394;2022-08-19T03:52:12;11.17;;;8.00;;
5945;SDS011;2998;48.206;16.394;2022-08-19T03:54:41;9.63;;;7.60;;
5945;SDS011;2998;48.206;16.394;2022-08-19T03:57:09;9.73;;;8.80;;
5945;SDS011;2998;48.206;16.394;2022-08-19T03:59:38;12.47;;;8.03;;
5945;SDS011;2998;48.206;16.394;2022-08-19T04:02:08;9.57;;;8.40;;
5945;SDS011;2998;48.206;16.394;2022-08-19T04:04:37;14.30;;;8.10;;
5945;SDS011;2998;48.206;16.394;2022-08-19T04:07:07;12.00;;;8.87;;
5945;SDS011;2998;48.206;16.394;2022-08-19T04:09:36;9.77;;;8.00;;
5945;SDS011;2998;48.206;16.394;2022-08-19T04:12:04;12.80;;;9.37;;
5945;SDS011;2998;48.206;16.394;2022-08-19T04:14:33;14.10;;;9.50;;
5945;SDS011;2998;48.206;16.394;2022-08-19T04:17:02;13.70;;;8.80;;
5945;SDS011;2998;48.206;16.394;2022-08-19T04:19:31;12.60;;;8.93;;
5945;SDS011;2998;48.206;16.394;2022-08-19T04:22:01;15.00;;;9.63;;
5945;SDS011;2998;48.206;16.394;2022-08-19T04:24:30;15.77;;;9.50;;
5945;SDS011;2998;48.206;16.394;2022-08-19T04:26:59;10.53;;;9.13;;
5945;SDS011;2998;48.206;16.394;2022-08-19T04:29:28;10.03;;;8.40;;
5945;SDS011;2998;48.206;16.394;2022-08-19T04:31:57;12.20;;;8.30;;
5945;SDS011;2998;48.206;16.394;2022-08-19T04:34:35;12.20;;;8.20;;
5945;SDS011;2998;48.206;16.394;2022-08-19T04:37:24;12.73;;;8.53;;
5945;SDS011;2998;48.206;16.394;2022-08-19T04:40:01;9.00;;;7.30;;
5945;SDS011;2998;48.206;16.394;2022-08-19T04:42:49;9.40;;;8.43;;
5945;SDS011;2998;48.206;16.394;2022-08-19T04:45:17;11.67;;;6.63;;
5945;SDS011;2998;48.206;16.394;2022-08-19T04:47:48;12.57;;;8.87;;
5945;SDS011;2998;48.206;16.394;2022-08-19T04:50:24;9.50;;;8.00;;
5945;SDS011;2998;48.206;16.394;2022-08-19T04:52:52;10.50;;;8.03;;
5945;SDS011;2998;48.206;16.394;2022-08-19T04:55:24;14.47;;;8.97;;
5945;SDS011;2998;48.206;16.394;2022-08-19T04:57:53;10.23;;;8.33;;
5945;SDS011;2998;48.206;16.394;2022-08-19T05:00:21;13.50;;;8.07;;
5945;SDS011;2998;48.206;16.394;2022-08-19T05:02:49;13.83;;;7.87;;
5945;SDS011;2998;48.206;16.394;2022-08-19T05:05:17;9.70;;;8.63;;
5945;SDS011;2998;48.206;16.394;2022-08-19T05:07:46;9.63;;;8.47;;
5945;SDS011;2998;48.206;16.394;2022-08-19T05:10:14;10.10;;;7.30;;
5945;SDS011;2998;48.206;16.394;2022-08-19T05:12:43;15.57;;;8.57;;
5945;SDS011;2998;48.206;16.394;2022-08-19T05:15:11;16.00;;;8.80;;
5945;SDS011;2998;48.206;16.394;2022-08-19T05:17:40;12.17;;;8.57;;
5945;SDS011;2998;48.206;16.394;2022-08-19T05:20:28;14.70;;;10.27;;
5945;SDS011;2998;48.206;16.394;2022-08-19T05:23:13;28.50;;;21.17;;
5945;SDS011;2998;48.206;16.394;2022-08-19T05:25:49;47.83;;;40.83;;
5945;SDS011;2998;48.206;16.394;2022-08-19T05:28:20;55.33;;;45.47;;
5945;SDS011;2998;48.206;16.394;2022-08-19T05:30:48;57.80;;;44.83;;
5945;SDS011;2998;48.206;16.394;2022-08-19T05:33:17;44.13;;;38.67;;
5945;SDS011;2998;48.206;16.394;2022-08-19T05:35:46;38.77;;;34.57;;
5945;SDS011;2998;48.206;16.394;2022-08-19T05:38:14;40.70;;;33.80;;
5945;SDS011;2998;48.206;16.394;2022-08-19T05:40:43;50.83;;;42.93;;
5945;SDS011;2998;48.206;16.394;2022-08-19T05:43:23;56.50;;;47.33;;
5945;SDS011;2998;48.206;16.394;2022-08-19T05:45:54;50.57;;;45.40;;
5945;SDS011;2998;48.206;16.394;2022-08-19T05:48:22;52.97;;;47.20;;
5945;SDS011;2998;48.206;16.394;2022-08-19T05:50:50;65.10;;;52.43;;
5945;SDS011;2998;48.206;16.394;2022-08-19T05:53:18;55.80;;;49.43;;
5945;SDS011;2998;48.206;16.394;2022-08-19T05:55:50;57.00;;;50.80;;
5945;SDS011;2998;48.206;16.394;2022-08-19T05:58:39;55.37;;;49.57;;
5945;SDS011;2998;48.206;16.394;2022-08-19T06:01:12;60.03;;;53.50;;
5945;SDS011;2998;48.206;16.394;2022-08-19T06:03:45;56.93;;;50.80;;
5945;SDS011;2998;48.206;16.394;2022-08-19T06:06:14;59.70;;;53.47;;
5945;SDS011;2998;48.206;16.394;2022-08-19T06:08:43;54.67;;;48.77;;
5945;SDS011;2998;48.206;16.394;2022-08-19T06:11:17;48.20;;;43.40;;
5945;SDS011;2998;48.206;16.394;2022-08-19T06:13:52;47.03;;;42.37;;
5945;SDS011;2998;48.206;16.394;2022-08-19T06:16:25;42.47;;;38.23;;
5945;SDS011;2998;48.206;16.394;2022-08-19T06:18:54;40.87;;;36.80;;
5945;SDS011;2998;48.206;16.394;2022-08-19T06:21:24;37.27;;;33.87;;
5945;SDS011;2998;48.206;16.394;2022-08-19T06:23:54;36.83;;;33.20;;
5945;SDS011;2998;48.206;16.394;2022-08-19T06:26:23;37.00;;;33.30;;
5945;SDS011;2998;48.206;16.394;2022-08-19T06:28:52;37.40;;;33.23;;
5945;SDS011;2998;48.206;16.394;2022-08-19T06:31:21;34.03;;;30.80;;
5945;SDS011;2998;48.206;16.394;2022-08-19T06:33:52;35.43;;;32.10;;
5945;SDS011;2998;48.206;16.394;2022-08-19T06:36:22;33.27;;;29.80;;
5945;SDS011;2998;48.206;16.394;2022-08-19T06:38:56;31.57;;;28.63;;
5945;SDS011;2998;48.206;16.394;2022-08-19T06:41:24;34.30;;;30.90;;
5945;SDS011;2998;48.206;16.394;2022-08-19T06:43:54;34.23;;;31.07;;
5945;SDS011;2998;48.206;16.394;2022-08-19T06:46:23;29.10;;;26.27;;
5945;SDS011;2998;48.206;16.394;2022-08-19T06:48:54;28.17;;;25.60;;
5945;SDS011;2998;48.206;16.394;2022-08-19T06:51:23;24.27;;;22.00;;
5945;SDS011;2998;48.206;16.394;2022-08-19T06:53:57;28.43;;;25.83;;
5945;SDS011;2998;48.206;16.394;2022-08-19T06:56:26;27.67;;;25.07;;
5945;SDS011;2998;48.206;16.394;2022-08-19T06:59:02;24.83;;;22.53;;
5945;SDS011;2998;48.206;16.394;2022-08-19T07:01:34;26.53;;;24.13;;
5945;SDS011;2998;48.206;16.394;2022-08-19T07:04:04;25.67;;;23.27;;
5945;SDS011;2998;48.206;16.394;2022-08-19T07:06:37;25.93;;;23.40;;
5945;SDS011;2998;48.206;16.394;2022-08-19T07:09:10;29.60;;;26.70;;
5945;SDS011;2998;48.206;16.394;2022-08-19T07:11:44;30.43;;;27.63;;
5945;SDS011;2998;48.206;16.394;2022-08-19T07:14:14;31.63;;;28.50;;
5945;SDS011;2998;48.206;16.394;2022-08-19T07:16:46;29.87;;;26.43;;
5945;SDS011;2998;48.206;16.394;2022-08-19T07:19:15;31.07;;;28.07;;
5945;SDS011;2998;48.206;16.394;2022-08-19T07:21:45;31.47;;;28.23;;
5945;SDS011;2998;48.206;16.394;2022-08-19T07:24:13;32.23;;;28.93;;
5945;SDS011;2998;48.206;16.394;2022-08-19T07:26:42;35.20;;;29.80;;
5945;SDS011;2998;48.206;16.394;2022-08-19T07:29:11;33.70;;;30.20;;
5945;SDS011;2998;48.206;16.394;2022-08-19T07:31:40;36.97;;;32.30;;
5945;SDS011;2998;48.206;16.394;2022-08-19T07:34:10;34.77;;;31.53;;
5945;SDS011;2998;48.206;16.394;2022-08-19T07:36:44;47.70;;;33.97;;
5945;SDS011;2998;48.206;16.394;2022-08-19T07:39:13;34.50;;;30.80;;
5945;SDS011;2998;48.206;16.394;2022-08-19T07:41:44;34.53;;;29.60;;
5945;SDS011;2998;48.206;16.394;2022-08-19T07:44:13;33.30;;;30.00;;
5945;SDS011;2998;48.206;16.394;2022-08-19T07:46:45;35.80;;;29.10;;
5945;SDS011;2998;48.206;16.394;2022-08-19T07:49:19;27.57;;;24.97;;
5945;SDS011;2998;48.206;16.394;2022-08-19T07:51:48;33.30;;;23.30;;
5945;SDS011;2998;48.206;16.394;2022-08-19T07:54:18;26.27;;;23.73;;
5945;SDS011;2998;48.206;16.394;2022-08-19T07:56:47;23.37;;;21.07;;
5945;SDS011;2998;48.206;16.394;2022-08-19T07:59:18;19.53;;;17.63;;
5945;SDS011;2998;48.206;16.394;2022-08-19T08:01:48;15.87;;;14.57;;
5945;SDS011;2998;48.206;16.394;2022-08-19T08:04:17;16.57;;;14.87;;
5945;SDS011;2998;48.206;16.394;2022-08-19T08:07:04;18.10;;;14.53;;
5945;SDS011;2998;48.206;16.394;2022-08-19T08:09:57;14.60;;;13.27;;
5945;SDS011;2998;48.206;16.394;2022-08-19T08:12:33;13.90;;;12.50;;
5945;SDS011;2998;48.206;16.394;2022-08-19T08:15:09;13.83;;;12.53;;
5945;SDS011;2998;48.206;16.394;2022-08-19T08:17:39;12.90;;;11.70;;
5945;SDS011;2998;48.206;16.394;2022-08-19T08:20:15;9.67;;;8.83;;
5945;SDS011;2998;48.206;16.394;2022-08-19T08:22:43;10.70;;;9.90;;
5945;SDS011;2998;48.206;16.394;2022-08-19T08:25:29;12.30;;;11.30;;
5945;SDS011;2998;48.206;16.394;2022-08-19T08:27:58;18.57;;;15.10;;
5945;SDS011;2998;48.206;16.394;2022-08-19T08:30:27;19.47;;;17.67;;
5945;SDS011;2998;48.206;16.394;2022-08-19T08:32:59;20.20;;;18.33;;
5945;SDS011;2998;48.206;16.394;2022-08-19T08:35:28;19.33;;;17.60;;
5945;SDS011;2998;48.206;16.394;2022-08-19T08:37:56;19.13;;;17.33;;
5945;SDS011;2998;48.206;16.394;2022-08-19T08:40:26;20.33;;;18.33;;
5945;SDS011;2998;48.206;16.394;2022-08-19T08:42:57;20.30;;;18.17;;
5945;SDS011;2998;48.206;16.394;2022-08-19T08:45:34;19.50;;;17.60;;
5945;SDS011;2998;48.206;16.394;2022-08-19T08:48:22;21.53;;;19.20;;
5945;SDS011;2998;48.206;16.394;2022-08-19T08:50:53;23.57;;;21.47;;
5945;SDS011;2998;48.206;16.394;2022-08-19T08:53:22;26.23;;;23.57;;
5945;SDS011;2998;48.206;16.394;2022-08-19T08:55:58;24.67;;;21.97;;
5945;SDS011;2998;48.206;16.394;2022-08-19T08:58:29;23.53;;;21.20;;
5945;SDS011;2998;48.206;16.394;2022-08-19T09:00:59;19.83;;;17.80;;
5945;SDS011;2998;48.206;16.394;2022-08-19T09:03:29;20.70;;;18.90;;
5945;SDS011;2998;48.206;16.394;2022-08-19T09:05:58;19.57;;;16.20;;
5945;SDS011;2998;48.206;16.394;2022-08-19T09:08:33;15.43;;;13.37;;
5945;SDS011;2998;48.206;16.394;2022-08-19T09:11:10;14.73;;;13.30;;
5945;SDS011;2998;48.206;16.394;2022-08-19T09:14:07;14.83;;;13.53;;
5945;SDS011;2998;48.206;16.394;2022-08-19T09:16:58;17.70;;;16.00;;
5945;SDS011;2998;48.206;16.394;2022-08-19T09:19:28;24.00;;;18.30;;
5945;SDS011;2998;48.206;16.394;2022-08-19T09:21:58;19.37;;;17.70;;
5945;SDS011;2998;48.206;16.394;2022-08-19T09:24:26;18.67;;;16.90;;
5945;SDS011;2998;48.206;16.394;2022-08-19T09:26:56;19.77;;;16.77;;
5945;SDS011;2998;48.206;16.394;2022-08-19T09:29:24;20.33;;;18.30;;
5945;SDS011;2998;48.206;16.394;2022-08-19T09:31:52;22.40;;;20.17;;
5945;SDS011;2998;48.206;16.394;2022-08-19T09:34:21;21.47;;;19.30;;
5945;SDS011;2998;48.206;16.394;2022-08-19T09:36:50;22.83;;;20.70;;
5945;SDS011;2998;48.206;16.394;2022-08-19T09:39:20;24.47;;;22.00;;
5945;SDS011;2998;48.206;16.394;2022-08-19T09:41:48;27.00;;;24.17;;
5945;SDS011;2998;48.206;16.394;2022-08-19T09:44:17;24.77;;;22.40;;
5945;SDS011;2998;48.206;16.394;2022-08-19T09:46:47;27.27;;;23.90;;
5945;SDS011;2998;48.206;16.394;2022-08-19T09:49:15;24.80;;;22.40;;
5945;SDS011;2998;48.206;16.394;2022-08-19T09:51:44;28.60;;;24.70;;
5945;SDS011;2998;48.206;16.394;2022-08-19T09:54:18;28.13;;;25.50;;
5945;SDS011;2998;48.206;16.394;2022-08-19T09:56:50;27.13;;;24.40;;
5945;SDS011;2998;48.206;16.394;2022-08-19T09:59:18;27.10;;;22.80;;
5945;SDS011;2998;48.206;16.394;2022-08-19T10:01:46;24.10;;;21.90;;
5945;SDS011;2998;48.206;16.394;2022-08-19T10:04:14;25.30;;;20.67;;
5945;SDS011;2998;48.206;16.394;2022-08-19T10:06:47;21.07;;;19.00;;
5945;SDS011;2998;48.206;16.394;2022-08-19T10:09:20;20.47;;;18.37;;
5945;SDS011;2998;48.206;16.394;2022-08-19T10:11:59;17.83;;;16.23;;
5945;SDS011;2998;48.206;16.394;2022-08-19T10:14:28;18.37;;;16.77;;
5945;SDS011;2998;48.206;16.394;2022-08-19T10:16:57;18.57;;;15.40;;
5945;SDS011;2998;48.206;16.394;2022-08-19T10:19:43;16.70;;;15.00;;
5945;SDS011;2998;48.206;16.394;2022-08-19T10:22:21;15.30;;;13.80;;
5945;SDS011;2998;48.206;16.394;2022-08-19T10:24:53;14.70;;;12.93;;
5945;SDS011;2998;48.206;16.394;2022-08-19T10:27:21;13.80;;;12.40;;
5945;SDS011;2998;48.206;16.394;2022-08-19T10:29:51;12.97;;;11.67;;
5945;SDS011;2998;48.206;16.394;2022-08-19T10:32:20;10.83;;;7.50;;
5945;SDS011;2998;48.206;16.394;2022-08-19T10:34:59;7.90;;;7.30;;
5945;SDS011;2998;48.206;16.394;2022-08-19T10:37:30;10.80;;;7.23;;
5945;SDS011;2998;48.206;16.394;2022-08-19T10:40:02;8.33;;;7.50;;
5945;SDS011;2998;48.206;16.394;2022-08-19T10:42:31;7.30;;;6.60;;
5945;SDS011;2998;48.206;16.394;2022-08-19T10:44:59;7.77;;;7.13;;
5945;SDS011;2998;48.206;16.394;2022-08-19T10:47:30;7.87;;;7.20;;
5945;SDS011;2998;48.206;16.394;2022-08-19T10:49:58;8.93;;;7.37;;
5945;SDS011;2998;48.206;16.394;2022-08-19T10:52:45;9.00;;;8.23;;
5945;SDS011;2998;48.206;16.394;2022-08-19T10:55:17;9.03;;;8.23;;
5945;SDS011;2998;48.206;16.394;2022-08-19T10:58:09;7.70;;;7.00;;
5945;SDS011;2998;48.206;16.394;2022-08-19T11:00:38;7.80;;;7.07;;
5945;SDS011;2998;48.206;16.394;2022-08-19T11:03:08;6.70;;;6.20;;
5945;SDS011;2998;48.206;16.394;2022-08-19T11:05:36;7.73;;;6.10;;
5945;SDS011;2998;48.206;16.394;2022-08-19T11:08:05;9.10;;;6.40;;
5945;SDS011;2998;48.206;16.394;2022-08-19T11:10:50;6.33;;;5.73;;
5945;SDS011;2998;48.206;16.394;2022-08-19T11:13:25;9.20;;;6.60;;
5945;SDS011;2998;48.206;16.394;2022-08-19T11:15:57;6.80;;;6.00;;
5945;SDS011;2998;48.206;16.394;2022-08-19T11:18:33;8.67;;;5.90;;
5945;SDS011;2998;48.206;16.394;2022-08-19T11:21:06;6.47;;;5.73;;
5945;SDS011;2998;48.206;16.394;2022-08-19T11:23:35;8.20;;;6.20;;
5945;SDS011;2998;48.206;16.394;2022-08-19T11:26:05;8.50;;;6.43;;
5945;SDS011;2998;48.206;16.394;2022-08-19T11:28:33;14.37;;;6.30;;
5945;SDS011;2998;48.206;16.394;2022-08-19T11:31:01;12.03;;;6.33;;
5945;SDS011;2998;48.206;16.394;2022-08-19T11:33:30;6.53;;;5.30;;
5945;SDS011;2998;48.206;16.394;2022-08-19T11:35:59;8.00;;;5.40;;
5945;SDS011;2998;48.206;16.394;2022-08-19T11:38:27;6.37;;;5.80;;
5945;SDS011;2998;48.206;16.394;2022-08-19T11:40:57;7.10;;;5.40;;
5945;SDS011;2998;48.206;16.394;2022-08-19T11:43:27;6.17;;;5.23;;
5945;SDS011;2998;48.206;16.394;2022-08-19T11:46:03;12.73;;;5.53;;
5945;SDS011;2998;48.206;16.394;2022-08-19T11:48:33;7.43;;;5.67;;
5945;SDS011;2998;48.206;16.394;2022-08-19T11:51:03;10.40;;;6.27;;
5945;SDS011;2998;48.206;16.394;2022-08-19T11:53:33;5.70;;;5.23;;
5945;SDS011;2998;48.206;16.394;2022-08-19T11:56:02;6.53;;;6.03;;
5945;SDS011;2998;48.206;16.394;2022-08-19T11:58:33;5.97;;;5.40;;
5945;SDS011;2998;48.206;16.394;2022-08-19T12:01:04;6.47;;;5.80;;
5945;SDS011;2998;48.206;16.394;2022-08-19T12:03:33;10.73;;;6.20;;
5945;SDS011;2998;48.206;16.394;2022-08-19T12:06:03;7.60;;;5.50;;
5945;SDS011;2998;48.206;16.394;2022-08-19T12:08:31;7.03;;;5.60;;
5945;SDS011;2998;48.206;16.394;2022-08-19T12:10:59;9.00;;;6.27;;
5945;SDS011;2998;48.206;16.394;2022-08-19T12:13:28;6.57;;;6.07;;
5945;SDS011;2998;48.206;16.394;2022-08-19T12:15:58;7.37;;;6.47;;
5945;SDS011;2998;48.206;16.394;2022-08-19T12:18:26;7.00;;;6.30;;
5945;SDS011;2998;48.206;16.394;2022-08-19T12:20:54;12.07;;;6.90;;
5945;SDS011;2998;48.206;16.394;2022-08-19T12:23:22;7.17;;;6.57;;
5945;SDS011;2998;48.206;16.394;2022-08-19T12:25:50;6.97;;;6.10;;
5945;SDS011;2998;48.206;16.394;2022-08-19T12:28:19;7.20;;;6.63;;
5945;SDS011;2998;48.206;16.394;2022-08-19T12:30:48;13.90;;;7.47;;
5945;SDS011;2998;48.206;16.394;2022-08-19T12:33:19;9.03;;;7.50;;
5945;SDS011;2998;48.206;16.394;2022-08-19T12:35:50;9.07;;;7.80;;
5945;SDS011;2998;48.206;16.394;2022-08-19T12:38:19;7.93;;;7.17;;
5945;SDS011;2998;48.206;16.394;2022-08-19T12:40:50;7.63;;;7.00;;
5945;SDS011;2998;48.206;16.394;2022-08-19T12:43:25;8.20;;;7.50;;
5945;SDS011;2998;48.206;16.394;2022-08-19T12:45:54;7.50;;;6.80;;
5945;SDS011;2998;48.206;16.394;2022-08-19T12:48:23;9.17;;;7.07;;
5945;SDS011;2998;48.206;16.394;2022-08-19T12:51:00;8.57;;;7.80;;
5945;SDS011;2998;48.206;16.394;2022-08-19T12:53:32;7.20;;;6.70;;
5945;SDS011;2998;48.206;16.394;2022-08-19T12:56:04;7.83;;;7.13;;
5945;SDS011;2998;48.206;16.394;2022-08-19T12:58:38;7.40;;;6.90;;
5945;SDS011;2998;48.206;16.394;2022-08-19T13:01:16;8.53;;;7.13;;
5945;SDS011;2998;48.206;16.394;2022-08-19T13:03:50;8.43;;;7.63;;
5945;SDS011;2998;48.206;16.394;2022-08-19T13:06:19;9.90;;;7.60;;
5945;SDS011;2998;48.206;16.394;2022-08-19T13:08:47;8.07;;;7.47;;
5945;SDS011;2998;48.206;16.394;2022-08-19T13:11:16;8.33;;;6.93;;
5945;SDS011;2998;48.206;16.394;2022-08-19T13:13:46;7.67;;;6.97;;
5945;SDS011;2998;48.206;16.394;2022-08-19T13:16:16;7.80;;;6.30;;
5945;SDS011;2998;48.206;16.394;2022-08-19T13:18:46;8.07;;;6.80;;
5945;SDS011;2998;48.206;16.394;2022-08-19T13:21:17;9.17;;;7.43;;
5945;SDS011;2998;48.206;16.394;2022-08-19T13:23:48;8.13;;;6.60;;
5945;SDS011;2998;48.206;16.394;2022-08-19T13:26:16;8.07;;;7.47;;
5945;SDS011;2998;48.206;16.394;2022-08-19T13:28:45;7.33;;;6.70;;
5945;SDS011;2998;48.206;16.394;2022-08-19T13:31:32;7.57;;;6.50;;
5945;SDS011;2998;48.206;16.394;2022-08-19T13:34:19;7.67;;;6.80;;
5945;SDS011;2998;48.206;16.394;2022-08-19T13:36:57;9.87;;;7.60;;
5945;SDS011;2998;48.206;16.394;2022-08-19T13:39:25;7.20;;;6.10;;
5945;SDS011;2998;48.206;16.394;2022-08-19T13:41:54;10.30;;;7.03;;
5945;SDS011;2998;48.206;16.394;2022-08-19T13:44:22;9.33;;;6.90;;
5945;SDS011;2998;48.206;16.394;2022-08-19T13:46:50;6.67;;;6.13;;
5945;SDS011;2998;48.206;16.394;2022-08-19T13:49:19;12.03;;;7.67;;
5945;SDS011;2998;48.206;16.394;2022-08-19T13:51:49;7.80;;;6.97;;
5945;SDS011;2998;48.206;16.394;2022-08-19T13:54:18;7.03;;;6.10;;
5945;SDS011;2998;48.206;16.394;2022-08-19T13:56:46;9.80;;;7.47;;
5945;SDS011;2998;48.206;16.394;2022-08-19T13:59:14;9.77;;;6.33;;
5945;SDS011;2998;48.206;16.394;2022-08-19T14:01:43;7.83;;;6.60;;
5945;SDS011;2998;48.206;16.394;2022-08-19T14:04:11;12.00;;;6.60;;
5945;SDS011;2998;48.206;16.394;2022-08-19T14:06:39;8.07;;;6.20;;
5945;SDS011;2998;48.206;16.394;2022-08-19T14:09:07;6.97;;;6.00;;
5945;SDS011;2998;48.206;16.394;2022-08-19T14:11:37;5.80;;;5.23;;
5945;SDS011;2998;48.206;16.394;2022-08-19T14:14:05;5.63;;;5.07;;
5945;SDS011;2998;48.206;16.394;2022-08-19T14:16:33;7.63;;;5.17;;
5945;SDS011;2998;48.206;16.394;2022-08-19T14:19:01;9.60;;;5.40;;
5945;SDS011;2998;48.206;16.394;2022-08-19T14:21:29;5.07;;;4.57;;
5945;SDS011;2998;48.206;16.394;2022-08-19T14:23:57;8.50;;;4.90;;
5945;SDS011;2998;48.206;16.394;2022-08-19T14:26:25;8.13;;;5.20;;
5945;SDS011;2998;48.206;16.394;2022-08-19T14:28:54;4.73;;;4.43;;
5945;SDS011;2998;48.206;16.394;2022-08-19T14:31:24;11.00;;;5.43;;
5945;SDS011;2998;48.206;16.394;2022-08-19T14:33:56;16.13;;;5.23;;
5945;SDS011;2998;48.206;16.394;2022-08-19T14:36:24;8.93;;;5.17;;
5945;SDS011;2998;48.206;16.394;2022-08-19T14:38:52;10.30;;;5.40;;
5945;SDS011;2998;48.206;16.394;2022-08-19T14:41:21;8.73;;;5.30;;
5945;SDS011;2998;48.206;16.394;2022-08-19T14:43:51;5.33;;;4.37;;
5945;SDS011;2998;48.206;16.394;2022-08-19T14:46:21;5.67;;;4.63;;
5945;SDS011;2998;48.206;16.394;2022-08-19T14:48:53;8.20;;;4.17;;
5945;SDS011;2998;48.206;16.394;2022-08-19T14:51:25;6.17;;;4.40;;
5945;SDS011;2998;48.206;16.394;2022-08-19T14:53:53;5.23;;;4.37;;
5945;SDS011;2998;48.206;16.394;2022-08-19T14:56:22;6.53;;;4.80;;
5945;SDS011;2998;48.206;16.394;2022-08-19T14:58:52;5.10;;;4.60;;
5945;SDS011;2998;48.206;16.394;2022-08-19T15:01:22;9.17;;;4.67;;
5945;SDS011;2998;48.206;16.394;2022-08-19T15:03:50;10.20;;;5.20;;
5945;SDS011;2998;48.206;16.394;2022-08-19T15:06:21;6.07;;;4.33;;
5945;SDS011;2998;48.206;16.394;2022-08-19T15:08:50;5.87;;;5.30;;
5945;SDS011;2998;48.206;16.394;2022-08-19T15:11:20;8.00;;;5.13;;